Time;durP1;ratioP1;P1;durP2;ratioP2;P2;SDS_P1;SDS_P2;PMS_P1;PMS_P2;Temp;Humidity;BMP_temperature;BMP_pressure;BME280_temperature;BME280_humidity;BME280_pressure;Samples;Min_cycle;Max_cycle;Signal;HPM_P1;HPM_P2
2023/09/30 00:15:22;;;;;;;16.60;12.90;;;;;;;15.68;66.23;98853.33;436427;1248;108175;-42
2023/09/30 00:25:25;;;;;;;16.00;12.10;;;;;;;15.69;66.37;98860.75;436206;1264;97973;-41
2023/09/30 00:35:52;;;;;;;16.00;12.10;;;;;;;15.80;66.46;98850.56;428816;1252;10390548;-41
2023/09/30 00:45:55;;;;;;;21.40;12.70;;;;;;;15.99;66.46;98843.99;436310;1247;97464;-40
2023/09/30 01:06:04;;;;;;;23.40;12.40;;;;;;;16.08;66.66;98834.80;436488;1247;97874;-42
2023/09/30 01:16:09;;;;;;;16.70;11.70;;;;;;;16.14;66.55;98833.88;436299;1263;111306;-42
2023/09/30 01:26:14;;;;;;;16.50;9.30;;;;;;;16.29;66.52;98832.23;436166;1254;108162;-41
2023/09/30 01:36:18;;;;;;;15.70;9.20;;;;;;;16.42;66.73;98832.11;436244;1253;97543;-41
2023/09/30 01:46:22;;;;;;;21.10;11.30;;;;;;;16.51;66.54;98838.48;436237;1247;108532;-41
2023/09/30 01:56:26;;;;;;;17.20;10.40;;;;;;;16.53;66.49;98843.56;436386;1247;97903;-41
2023/09/30 02:06:30;;;;;;;18.20;10.50;;;;;;;16.50;66.37;98844.35;437177;1251;109482;-42
2023/09/30 02:16:34;;;;;;;16.10;10.00;;;;;;;16.43;66.30;98839.75;436008;1253;98033;-42
2023/09/30 02:26:43;;;;;;;13.90;9.30;;;;;;;16.43;66.69;98835.00;435951;1253;97980;-41
2023/09/30 02:36:46;;;;;;;16.20;10.50;;;;;;;16.48;66.83;98839.55;436194;1252;110394;-42
2023/09/30 02:46:50;;;;;;;17.00;10.20;;;;;;;16.56;66.91;98846.30;435997;1253;97489;-49
2023/09/30 02:56:55;;;;;;;18.50;10.60;;;;;;;16.55;66.73;98840.00;436105;1248;98021;-41
2023/09/30 03:06:59;;;;;;;17.00;8.90;;;;;;;16.56;66.67;98836.32;436080;1250;110835;-41
2023/09/30 03:17:03;;;;;;;14.50;9.40;;;;;;;16.67;66.73;98840.42;436098;1253;108307;-42
2023/09/30 03:27:08;;;;;;;15.60;10.40;;;;;;;16.66;66.81;98839.40;435946;1253;96639;-41
2023/09/30 03:37:12;;;;;;;15.10;11.80;;;;;;;16.54;67.25;98844.15;435976;1253;97916;-41
2023/09/30 03:47:16;;;;;;;14.80;9.90;;;;;;;16.46;67.57;98849.69;435982;1264;108287;-42
2023/09/30 03:57:20;;;;;;;18.00;10.40;;;;;;;16.43;67.98;98850.15;436078;1252;97886;-42
2023/09/30 04:17:27;;;;;;;12.90;11.20;;;;;;;16.21;68.68;98862.67;436117;1250;96567;-42
2023/09/30 04:27:31;;;;;;;15.30;9.70;;;;;;;16.08;69.21;98872.73;435915;1253;109720;-41
2023/09/30 04:47:40;;;;;;;13.20;10.60;;;;;;;15.86;70.81;98875.73;436031;1250;97915;-42
2023/09/30 05:07:51;;;;;;;19.80;11.20;;;;;;;16.04;72.50;98893.04;436300;1251;97899;-42
2023/09/30 05:17:57;;;;;;;12.90;10.50;;;;;;;16.13;73.02;98899.50;436112;1248;110719;-42
2023/09/30 05:28:03;;;;;;;13.50;11.80;;;;;;;16.15;73.46;98909.13;436092;1252;108133;-42
2023/09/30 05:38:08;;;;;;;16.00;12.60;;;;;;;16.20;74.14;98915.76;436159;1249;97014;-42
2023/09/30 05:48:15;;;;;;;15.10;11.20;;;;;;;16.25;74.63;98922.66;436105;1252;108801;-42
2023/09/30 05:58:19;;;;;;;17.10;12.50;;;;;;;16.45;75.03;98936.90;436256;1253;97999;-42
2023/09/30 06:08:22;;;;;;;17.90;11.40;;;;;;;16.63;75.49;98952.58;436261;1253;110658;-41
2023/09/30 06:18:25;;;;;;;17.60;11.90;;;;;;;16.61;75.71;98955.62;436065;1252;106931;-41
2023/09/30 06:28:31;;;;;;;14.30;10.80;;;;;;;16.65;76.06;98969.46;435920;1248;97897;-42
2023/09/30 06:38:38;;;;;;;13.50;10.40;;;;;;;16.77;76.57;98986.46;435912;1253;108740;-42
2023/09/30 06:48:45;;;;;;;12.20;10.00;;;;;;;16.89;76.98;99001.84;435913;1248;96620;-41
2023/09/30 06:58:49;;;;;;;14.00;9.30;;;;;;;16.99;77.34;99005.94;435915;1250;110695;-42
2023/09/30 07:08:53;;;;;;;16.80;9.80;;;;;;;17.17;77.88;99013.80;436061;1253;107711;-41
2023/09/30 07:18:57;;;;;;;17.00;10.70;;;;;;;17.30;77.97;99018.98;435857;1248;98976;-42
2023/09/30 07:29:01;;;;;;;14.10;10.70;;;;;;;17.40;78.29;99025.19;435820;1253;108786;-42
2023/09/30 07:39:05;;;;;;;14.80;10.00;;;;;;;17.47;78.32;99046.20;435824;1252;96707;-42
2023/09/30 07:49:08;;;;;;;16.80;10.80;;;;;;;17.73;78.61;99046.82;435794;1251;109981;-43
2023/09/30 07:59:13;;;;;;;15.50;10.80;;;;;;;18.01;78.95;99047.70;435899;1252;106788;-42
2023/09/30 08:09:22;;;;;;;16.60;10.70;;;;;;;18.21;78.90;99063.38;435833;1250;97858;-41
2023/09/30 08:19:25;;;;;;;17.60;13.50;;;;;;;18.30;78.88;99069.69;435913;1252;108541;-41
2023/09/30 08:29:29;;;;;;;17.50;12.50;;;;;;;18.34;79.13;99067.48;435778;1253;97890;-42
2023/09/30 08:39:38;;;;;;;14.60;11.10;;;;;;;18.55;79.72;99073.36;435711;1253;109727;-42
2023/09/30 08:49:47;;;;;;;14.80;11.50;;;;;;;19.03;79.83;99082.78;435771;1251;108729;-42
2023/09/30 08:59:53;;;;;;;18.20;12.70;;;;;;;19.07;79.55;99079.07;435854;1252;97357;-42
2023/09/30 09:10:06;;;;;;;17.80;11.20;;;;;;;19.18;79.47;99088.42;435648;1253;110498;-42
2023/09/30 09:20:12;;;;;;;17.20;11.50;;;;;;;19.27;79.30;99101.30;435675;1248;106853;-42
2023/09/30 09:30:20;;;;;;;16.50;12.10;;;;;;;19.30;79.13;99093.61;435788;1253;97875;-41
2023/09/30 09:40:26;;;;;;;13.60;9.90;;;;;;;19.35;79.04;99088.81;436001;1250;109440;-41
2023/09/30 09:50:31;;;;;;;15.70;10.60;;;;;;;19.33;78.83;99085.45;436133;1253;107868;-40
2023/09/30 10:00:36;;;;;;;20.70;11.10;;;;;;;19.43;79.01;99093.39;436388;1253;97899;-42
2023/09/30 10:10:43;;;;;;;6.70;4.20;;;;;;;19.16;78.68;99112.12;436031;1253;97466;-42
2023/09/30 10:20:48;;;;;;;6.00;2.70;;;;;;;18.20;79.12;99143.23;436207;1250;108887;-42
2023/09/30 10:31:13;;;;;;;3.90;2.10;;;;;;;17.65;79.98;99145.25;435945;1253;97862;-42
2023/09/30 10:41:34;;;;;;;7.80;3.20;;;;;;;17.42;80.63;99157.09;435787;1253;107613;-41
2023/09/30 10:51:39;;;;;;;9.40;3.30;;;;;;;17.19;81.34;99168.80;435765;1248;97874;-41
2023/09/30 11:01:43;;;;;;;7.50;4.80;;;;;;;17.06;81.77;99178.08;435539;1250;110958;-41
2023/09/30 11:11:49;;;;;;;8.10;4.80;;;;;;;16.81;81.86;99184.95;435604;1266;107817;-41
2023/09/30 11:21:55;;;;;;;10.20;5.60;;;;;;;16.59;82.08;99194.77;435646;1253;98540;-42
2023/09/30 11:42:02;;;;;;;10.70;5.10;;;;;;;16.60;82.59;99212.13;435743;1249;96651;-42
2023/09/30 11:52:08;;;;;;;8.50;4.70;;;;;;;16.86;82.34;99208.48;435761;1250;109458;-42
2023/09/30 12:02:12;;;;;;;11.00;5.60;;;;;;;17.24;81.19;99201.48;435637;1261;108849;-43
2023/09/30 12:22:20;;;;;;;9.30;3.70;;;;;;;17.72;78.63;99183.81;435663;1251;109787;-42
2023/09/30 12:32:48;;;;;;;9.20;4.60;;;;;;;18.01;77.19;99190.42;435767;1253;108210;-41
2023/09/30 12:42:52;;;;;;;6.90;3.70;;;;;;;18.26;75.53;99192.45;435405;1253;444393;-42
2023/09/30 12:52:55;;;;;;;8.30;4.40;;;;;;;18.38;72.98;99195.08;435541;1253;106280;-41
2023/09/30 13:02:58;;;;;;;11.70;3.80;;;;;;;18.29;70.85;99199.14;435667;1251;96945;-42
2023/09/30 13:13:02;;;;;;;8.70;3.60;;;;;;;18.10;69.84;99211.53;435792;1247;110423;-42
2023/09/30 13:33:09;;;;;;;9.90;3.20;;;;;;;18.21;68.02;99212.09;435900;1253;98173;-42
2023/09/30 13:43:12;;;;;;;7.20;2.80;;;;;;;18.35;66.08;99215.16;436096;1253;97891;-41
2023/09/30 13:53:15;;;;;;;7.40;3.10;;;;;;;18.33;63.82;99223.57;436219;1250;107409;-42
2023/09/30 14:13:21;;;;;;;9.50;3.50;;;;;;;17.83;63.78;99227.72;436177;1258;107646;-42
2023/09/30 14:23:25;;;;;;;17.60;4.60;;;;;;;17.67;63.72;99227.42;436200;1249;97935;-42
2023/09/30 14:33:29;;;;;;;12.60;4.30;;;;;;;17.58;63.31;99235.98;435983;1250;109679;-42
2023/09/30 14:43:32;;;;;;;10.60;3.40;;;;;;;17.35;63.29;99238.95;435969;1261;97473;-42
2023/09/30 14:53:39;;;;;;;11.30;4.50;;;;;;;17.14;63.33;99236.48;435954;1251;96656;-41
2023/09/30 15:03:43;;;;;;;16.70;4.50;;;;;;;16.97;63.13;99239.78;435696;1253;110886;-41
2023/09/30 15:13:48;;;;;;;12.60;4.50;;;;;;;16.69;62.84;99255.20;435740;1253;109246;-41
2023/09/30 15:23:52;;;;;;;15.00;5.10;;;;;;;16.49;62.93;99258.73;435939;1248;97865;-41
2023/09/30 15:54:19;;;;;;;13.60;4.70;;;;;;;16.12;63.39;99286.74;435977;1253;110529;-41
2023/09/30 16:04:23;;;;;;;23.30;5.60;;;;;;;15.90;63.85;99296.08;435928;1253;107692;-42
2023/09/30 16:34:41;;;;;;;12.50;4.30;;;;;;;15.24;65.01;99333.20;435793;1261;108515;-42
2023/09/30 16:44:45;;;;;;;16.40;5.80;;;;;;;15.19;65.38;99347.56;435860;1254;97855;-42
2023/09/30 16:54:48;;;;;;;17.10;6.80;;;;;;;15.03;65.74;99362.89;435936;1253;97884;-42
2023/09/30 17:14:55;;;;;;;18.30;7.10;;;;;;;14.36;66.28;99367.70;435865;1249;97862;-42
2023/09/30 17:24:59;;;;;;;20.20;6.60;;;;;;;14.10;66.57;99375.56;435920;1254;108113;-42
2023/09/30 17:55:12;;;;;;;18.70;7.50;;;;;;;13.45;67.67;99392.06;436058;1251;107971;-41
2023/09/30 18:05:16;;;;;;;23.40;7.50;;;;;;;13.06;67.99;99397.09;436151;1251;96663;-41
2023/09/30 18:15:20;;;;;;;22.30;7.10;;;;;;;12.71;68.35;99392.55;436155;1255;107364;-42
2023/09/30 18:35:31;;;;;;;20.30;7.60;;;;;;;12.35;69.19;99397.42;436197;1251;110646;-43
2023/09/30 18:45:35;;;;;;;18.00;7.60;;;;;;;12.09;69.58;99409.70;436282;1254;97874;-43
2023/09/30 18:55:39;;;;;;;15.70;5.10;;;;;;;11.92;69.89;99412.85;436190;1253;97811;-43
2023/09/30 19:15:46;;;;;;;20.80;10.10;;;;;;;11.81;70.52;99423.83;435947;1248;109358;-42
2023/09/30 19:35:53;;;;;;;24.20;7.50;;;;;;;11.60;70.85;99432.45;435886;1254;97974;-43
2023/09/30 19:46:00;;;;;;;22.60;7.80;;;;;;;11.53;71.08;99429.74;435740;1253;107450;-41
2023/09/30 19:56:03;;;;;;;12.40;6.20;;;;;;;11.44;71.34;99422.00;436019;1248;96676;-42
2023/09/30 20:16:20;;;;;;;17.10;6.10;;;;;;;11.19;71.62;99433.59;436035;1252;97896;-42
2023/09/30 20:26:26;;;;;;;17.20;6.60;;;;;;;11.04;71.76;99433.10;435781;1254;109950;-42
2023/09/30 20:36:33;;;;;;;15.60;5.50;;;;;;;10.90;72.15;99439.91;435978;1254;107527;-41
2023/09/30 20:46:37;;;;;;;16.00;6.10;;;;;;;10.76;72.54;99442.95;435909;1253;97378;-42
2023/09/30 20:56:41;;;;;;;14.40;4.90;;;;;;;10.66;72.63;99448.73;435973;1261;97877;-42
2023/09/30 21:06:45;;;;;;;17.20;5.70;;;;;;;10.67;72.79;99457.89;435921;1252;107880;-41
2023/09/30 21:16:53;;;;;;;12.30;4.60;;;;;;;10.61;73.02;99456.77;436003;1254;97902;-42
2023/09/30 21:26:57;;;;;;;12.50;4.50;;;;;;;10.45;73.28;99454.83;436084;1250;110173;-41
2023/09/30 21:37:01;;;;;;;10.50;4.00;;;;;;;10.35;73.50;99449.52;435915;1251;108779;-42
2023/09/30 21:47:04;;;;;;;10.30;3.30;;;;;;;10.27;73.53;99444.19;436216;1253;98501;-42
2023/09/30 21:57:07;;;;;;;11.50;4.80;;;;;;;10.14;73.58;99445.04;436339;1255;107463;-42
2023/09/30 22:07:11;;;;;;;17.70;5.70;;;;;;;10.01;73.92;99445.18;436131;1248;97899;-42
2023/09/30 22:17:15;;;;;;;13.70;5.70;;;;;;;9.74;74.20;99457.44;436043;1248;110225;-42
2023/09/30 22:27:18;;;;;;;18.60;5.90;;;;;;;9.68;74.44;99464.52;435881;1254;109243;-42
2023/09/30 22:37:25;;;;;;;12.50;5.30;;;;;;;9.68;74.65;99461.21;436040;1253;96652;-43
2023/09/30 22:47:41;;;;;;;19.40;6.40;;;;;;;9.71;75.05;99454.13;436008;1253;108233;-42
2023/09/30 22:57:46;;;;;;;16.70;5.50;;;;;;;9.71;75.27;99452.48;435915;1253;97870;-41
2023/09/30 23:07:50;;;;;;;14.40;5.80;;;;;;;9.61;75.34;99460.09;436152;1248;110640;-42
2023/09/30 23:17:53;;;;;;;12.60;5.30;;;;;;;9.44;75.52;99470.59;435617;1254;108363;-42
2023/09/30 23:38:01;;;;;;;10.10;4.90;;;;;;;9.48;76.03;99474.27;436005;1252;108761;-42
2023/09/30 23:48:07;;;;;;;13.00;4.60;;;;;;;9.50;76.15;99474.05;435905;1249;97749;-42
2023/09/30 23:58:15;;;;;;;17.00;5.40;;;;;;;9.37;76.32;99470.51;436021;1253;108776;-42
